Time;durP1;ratioP1;P1;durP2;ratioP2;P2;SDS_P1;SDS_P2;PMS_P1;PMS_P2;Temp;Humidity;BMP_temperature;BMP_pressure;BME280_temperature;BME280_humidity;BME280_pressure;Samples;Min_cycle;Max_cycle;Signal;HPM_P1;HPM_P2
2022/09/28 01:38:17;;;;;;;28.23;26.67;;;;;;;7.43;100.00;99433.03;5044995;28;20440;-42
2022/09/28 01:40:47;;;;;;;31.93;29.73;;;;;;;7.47;100.00;99433.41;5094872;22;20482;-50
2022/09/28 01:43:19;;;;;;;28.87;27.07;;;;;;;7.50;100.00;99433.81;5062541;28;20515;-49
2022/09/28 01:45:51;;;;;;;30.30;28.37;;;;;;;7.57;100.00;99425.84;5071058;28;20452;-53
2022/09/28 01:48:25;;;;;;;33.30;30.60;;;;;;;7.59;100.00;99429.09;5047095;28;20545;-47
2022/09/28 01:50:58;;;;;;;32.20;29.70;;;;;;;7.64;100.00;99430.13;5072086;28;20504;-50
2022/09/28 01:53:32;;;;;;;34.40;31.93;;;;;;;7.69;100.00;99434.78;5083782;28;20787;-50
2022/09/28 01:56:04;;;;;;;35.93;33.03;;;;;;;7.73;100.00;99434.19;5084805;28;20479;-52
2022/09/28 01:58:37;;;;;;;32.47;30.20;;;;;;;7.78;100.00;99426.41;5050616;28;20966;-51
2022/09/28 02:01:09;;;;;;;35.87;32.37;;;;;;;7.82;100.00;99424.94;5073241;28;20495;-51
2022/09/28 02:03:41;;;;;;;32.97;30.60;;;;;;;7.87;100.00;99429.63;5073789;28;20470;-51
2022/09/28 02:06:16;;;;;;;33.93;31.13;;;;;;;7.92;100.00;99424.47;5073694;28;20430;-47
2022/09/28 02:08:49;;;;;;;33.07;30.70;;;;;;;7.98;100.00;99425.47;5050225;28;20853;-46
2022/09/28 02:11:19;;;;;;;37.37;31.90;;;;;;;8.03;100.00;99423.84;5073501;28;20446;-54
2022/09/28 02:13:50;;;;;;;38.33;34.40;;;;;;;8.09;100.00;99430.13;5073792;28;20492;-54
2022/09/28 02:16:23;;;;;;;44.10;32.50;;;;;;;8.14;100.00;99423.16;5082434;28;20969;-55
2022/09/28 02:18:51;;;;;;;115.10;42.67;;;;;;;8.20;100.00;99426.81;5030526;28;20812;-53
2022/09/28 02:21:26;;;;;;;54.33;35.47;;;;;;;8.26;100.00;99425.94;5078457;28;20446;-50
2022/09/28 02:23:58;;;;;;;57.67;37.43;;;;;;;8.29;100.00;99426.38;5053905;28;20470;-50
2022/09/28 02:26:31;;;;;;;56.83;36.83;;;;;;;8.32;100.00;99425.13;5053918;28;20438;-54
2022/09/28 02:28:59;;;;;;;148.60;47.60;;;;;;;8.36;100.00;99429.00;5030532;28;20447;-52
2022/09/28 02:31:27;;;;;;;60.57;39.00;;;;;;;8.41;100.00;99433.66;5072640;28;20967;-50
2022/09/28 02:33:57;;;;;;;93.30;41.23;;;;;;;8.43;100.00;99436.91;5073923;28;20434;-51
2022/09/28 02:36:26;;;;;;;79.73;41.77;;;;;;;8.46;100.00;99431.97;5073670;28;20919;-50
2022/09/28 02:38:57;;;;;;;55.87;37.10;;;;;;;8.49;100.00;99433.38;5049934;28;20542;-54
2022/09/28 02:41:38;;;;;;;102.17;46.27;;;;;;;8.52;100.00;99435.63;5073369;28;20454;-52
2022/09/28 02:44:16;;;;;;;51.87;38.80;;;;;;;8.55;100.00;99429.88;5073883;28;20878;-44
2022/09/28 02:46:53;;;;;;;55.57;39.40;;;;;;;8.57;100.00;99439.25;5073620;28;20434;-46
2022/09/28 02:49:29;;;;;;;65.20;40.57;;;;;;;8.60;100.00;99435.38;5063399;28;20466;-51
2022/09/28 02:52:30;;;;;;;119.50;49.13;;;;;;;8.62;100.00;99426.16;5073448;28;20453;-52
2022/09/28 02:55:32;;;;;;;97.97;47.40;;;;;;;8.65;100.00;99427.56;5073557;28;20448;-47
2022/09/28 02:58:14;;;;;;;100.97;48.50;;;;;;;8.69;100.00;99437.53;5030661;28;20437;-48
2022/09/28 03:00:50;;;;;;;80.30;46.40;;;;;;;8.68;100.00;99430.59;5051242;28;20472;-53
2022/09/28 03:03:23;;;;;;;64.67;42.23;;;;;;;8.74;100.00;99436.91;5074842;28;20499;-51
2022/09/28 03:06:00;;;;;;;79.57;45.80;;;;;;;8.75;100.00;99436.66;5074145;28;20434;-55
2022/09/28 03:08:33;;;;;;;70.27;45.97;;;;;;;8.74;100.00;99431.59;5076417;28;20430;-49
2022/09/28 03:11:05;;;;;;;71.30;49.47;;;;;;;8.78;100.00;99430.91;5065480;28;20516;-52
2022/09/28 03:13:34;;;;;;;52.30;43.73;;;;;;;8.79;100.00;99424.59;5076984;28;20483;-52
2022/09/28 03:16:09;;;;;;;54.43;43.47;;;;;;;8.82;100.00;99433.97;5084643;28;20483;-50
2022/09/28 03:18:37;;;;;;;56.87;44.47;;;;;;;8.83;100.00;99430.28;5093068;28;20855;-53
2022/09/28 03:21:05;;;;;;;55.23;45.40;;;;;;;8.85;100.00;99429.03;5052349;28;21245;-50
2022/09/28 03:23:33;;;;;;;57.20;45.87;;;;;;;8.86;100.00;99430.66;5091278;28;20465;-51
2022/09/28 03:26:02;;;;;;;61.10;47.83;;;;;;;8.87;100.00;99432.28;5093112;28;20455;-51
2022/09/28 03:28:30;;;;;;;48.40;43.23;;;;;;;8.88;100.00;99425.13;5092954;28;20809;-50
2022/09/28 03:30:57;;;;;;;51.87;44.10;;;;;;;8.89;100.00;99427.56;5066253;28;21185;-52
2022/09/28 03:33:25;;;;;;;63.73;48.37;;;;;;;8.92;100.00;99423.66;5092904;28;20499;-50
2022/09/28 03:35:52;;;;;;;48.87;43.87;;;;;;;8.95;100.00;99425.06;5092877;28;20441;-49
2022/09/28 03:38:20;;;;;;;52.70;43.77;;;;;;;8.94;100.00;99426.91;5092816;28;20460;-50
2022/09/28 03:40:55;;;;;;;48.90;43.07;;;;;;;8.96;100.00;99427.50;5066184;28;21063;-47
2022/09/28 03:43:25;;;;;;;55.20;45.37;;;;;;;8.96;100.00;99424.84;5092561;28;20473;-47
2022/09/28 03:45:54;;;;;;;48.20;43.07;;;;;;;8.96;100.00;99418.72;5092569;28;21003;-44
2022/09/28 03:48:23;;;;;;;58.60;47.23;;;;;;;8.97;100.00;99415.84;5092751;28;20469;-45
2022/09/28 03:50:57;;;;;;;61.60;48.37;;;;;;;8.96;100.00;99416.06;5066448;28;20504;-53
2022/09/28 03:53:26;;;;;;;58.20;45.20;;;;;;;8.97;100.00;99423.81;5092259;28;20475;-49
2022/09/28 03:55:54;;;;;;;63.07;47.87;;;;;;;8.98;100.00;99427.28;5092118;28;20479;-46
2022/09/28 03:58:22;;;;;;;53.50;47.33;;;;;;;8.99;100.00;99421.75;5092564;28;20849;-46
2022/09/28 04:00:51;;;;;;;52.37;46.93;;;;;;;9.00;100.00;99423.38;5078478;28;20470;-46
2022/09/28 04:03:19;;;;;;;66.57;47.53;;;;;;;8.99;100.00;99413.75;5092404;28;20552;-49
2022/09/28 04:05:50;;;;;;;56.53;44.93;;;;;;;8.99;100.00;99410.31;5090987;28;20437;-51
2022/09/28 04:08:18;;;;;;;50.37;45.37;;;;;;;8.99;100.00;99412.97;5092283;28;20437;-51
2022/09/28 04:10:46;;;;;;;69.57;49.60;;;;;;;8.98;100.00;99408.69;5065647;28;20473;-50
2022/09/28 04:13:14;;;;;;;48.20;43.00;;;;;;;9.00;100.00;99419.91;5091892;28;20487;-53
2022/09/28 04:15:42;;;;;;;51.50;46.10;;;;;;;9.00;100.00;99411.94;5092127;28;20437;-50
2022/09/28 04:18:12;;;;;;;50.40;43.33;;;;;;;9.01;100.00;99410.91;5092072;28;20984;-54
2022/09/28 04:20:44;;;;;;;47.77;42.70;;;;;;;9.02;100.00;99412.53;5053500;28;20477;-51
2022/09/28 04:23:11;;;;;;;49.20;42.33;;;;;;;9.03;100.00;99414.97;5087038;28;21034;-53
2022/09/28 04:25:39;;;;;;;56.03;46.50;;;;;;;9.04;100.00;99418.44;5092190;28;20433;-50
2022/09/28 04:30:53;;;;;;;58.57;48.20;;;;;;;9.05;100.00;99415.56;5065504;28;20482;-51
2022/09/28 04:33:22;;;;;;;64.20;47.50;;;;;;;9.08;100.00;99417.00;5091788;28;20437;-47
2022/09/28 04:35:50;;;;;;;62.40;46.80;;;;;;;9.09;100.00;99421.25;5091794;28;20429;-49
2022/09/28 04:38:17;;;;;;;48.07;42.20;;;;;;;9.09;100.00;99424.72;5092019;28;20482;-53
2022/09/28 04:41:05;;;;;;;47.07;41.60;;;;;;;9.10;100.00;99418.38;5078347;28;20811;-51
2022/09/28 04:43:33;;;;;;;46.27;40.80;;;;;;;9.11;100.00;99427.97;5091240;28;20477;-53
2022/09/28 04:46:02;;;;;;;45.20;40.50;;;;;;;9.12;100.00;99429.63;5091498;28;20482;-49
2022/09/28 04:48:31;;;;;;;47.17;40.30;;;;;;;9.15;100.00;99431.84;5091890;28;20767;-53
2022/09/28 04:51:00;;;;;;;58.40;46.70;;;;;;;9.14;100.00;99432.84;5091571;28;20449;-51
2022/09/28 04:53:29;;;;;;;52.00;42.90;;;;;;;9.16;100.00;99425.50;5065852;28;20502;-51
2022/09/28 04:55:58;;;;;;;48.27;43.37;;;;;;;9.19;100.00;99429.56;5091742;28;20835;-51
2022/09/28 04:58:26;;;;;;;47.63;42.50;;;;;;;9.20;100.00;99436.50;5091602;28;20434;-51
2022/09/28 05:00:58;;;;;;;48.40;43.40;;;;;;;9.21;100.00;99432.81;5091295;28;20582;-52
2022/09/28 05:03:26;;;;;;;52.77;43.60;;;;;;;9.21;100.00;99428.31;5065372;28;20477;-48
2022/09/28 05:05:55;;;;;;;47.30;42.57;;;;;;;9.23;100.00;99433.38;5091576;28;20421;-49
2022/09/28 05:08:23;;;;;;;50.80;42.50;;;;;;;9.24;100.00;99432.38;5091552;28;20487;-49
2022/09/28 05:10:57;;;;;;;45.83;41.00;;;;;;;9.26;100.00;99423.13;5091622;28;20495;-49
2022/09/28 05:13:25;;;;;;;44.60;40.20;;;;;;;9.28;100.00;99430.91;5065390;28;20468;-48
2022/09/28 05:15:54;;;;;;;47.87;43.07;;;;;;;9.29;100.00;99430.66;5091613;28;20442;-50
2022/09/28 05:18:27;;;;;;;47.30;42.27;;;;;;;9.32;100.00;99434.72;5091574;28;20437;-51
2022/09/28 05:20:56;;;;;;;45.90;41.03;;;;;;;9.34;100.00;99422.84;5075228;28;20966;-47
2022/09/28 05:23:24;;;;;;;46.03;41.43;;;;;;;9.35;100.00;99416.50;5070849;28;20522;-45
2022/09/28 05:25:51;;;;;;;44.30;39.90;;;;;;;9.36;100.00;99426.09;5092332;28;20841;-46
2022/09/28 05:28:24;;;;;;;47.77;42.70;;;;;;;9.36;100.00;99428.75;5095106;28;20433;-47
2022/09/28 05:30:52;;;;;;;45.70;41.40;;;;;;;9.37;100.00;99427.75;5095097;28;20865;-48
2022/09/28 05:33:19;;;;;;;44.00;39.90;;;;;;;9.39;100.00;99422.19;5069068;28;20526;-50
2022/09/28 05:35:47;;;;;;;45.87;41.57;;;;;;;9.39;100.00;99416.88;5095133;28;20558;-52
2022/09/28 05:38:22;;;;;;;46.80;42.17;;;;;;;9.42;100.00;99419.91;5095061;28;20443;-48
2022/09/28 05:40:49;;;;;;;46.53;41.83;;;;;;;9.44;100.00;99412.50;5094544;28;20514;-52
2022/09/28 05:43:17;;;;;;;48.60;43.67;;;;;;;9.47;100.00;99421.88;5068924;28;20481;-51
2022/09/28 05:45:45;;;;;;;45.87;41.43;;;;;;;9.51;100.00;99419.59;5094681;28;20477;-49
2022/09/28 05:48:15;;;;;;;42.90;38.70;;;;;;;9.54;100.00;99409.34;5094832;28;20429;-49
2022/09/28 05:50:43;;;;;;;44.47;40.10;;;;;;;9.57;100.00;99411.53;5094394;28;20486;-51
2022/09/28 05:53:11;;;;;;;43.87;39.27;;;;;;;9.58;100.00;99417.69;5068943;28;20490;-51
2022/09/28 05:55:40;;;;;;;43.53;39.23;;;;;;;9.61;100.00;99410.09;5094634;28;20429;-47
2022/09/28 05:58:08;;;;;;;42.77;38.60;;;;;;;9.64;100.00;99411.47;5094581;28;20845;-49
2022/09/28 06:00:36;;;;;;;44.27;40.13;;;;;;;9.64;100.00;99406.16;5094495;28;20460;-53
2022/09/28 06:03:06;;;;;;;43.93;39.73;;;;;;;9.64;100.00;99416.81;5094272;28;20502;-53
2022/09/28 06:05:38;;;;;;;42.30;38.50;;;;;;;9.70;100.00;99415.91;5068329;28;20542;-51
2022/09/28 06:08:09;;;;;;;41.83;37.83;;;;;;;9.74;100.00;99414.41;5094580;28;20433;-46
2022/09/28 06:10:36;;;;;;;44.43;40.17;;;;;;;9.79;100.00;99411.91;5094401;28;20487;-52
2022/09/28 06:13:06;;;;;;;42.00;38.30;;;;;;;9.84;100.00;99417.38;5094614;28;20433;-47
2022/09/28 06:15:36;;;;;;;43.60;39.60;;;;;;;9.85;100.00;99414.50;5068165;28;20507;-50
2022/09/28 06:18:06;;;;;;;43.13;39.50;;;;;;;9.92;100.00;99414.41;5094069;28;20918;-49
2022/09/28 06:20:36;;;;;;;43.30;37.67;;;;;;;9.92;100.00;99415.22;5081386;28;20815;-50
2022/09/28 06:23:04;;;;;;;38.87;35.43;;;;;;;9.96;100.00;99421.72;5088082;28;20410;-51
2022/09/28 06:25:32;;;;;;;43.40;39.13;;;;;;;9.91;100.00;99421.59;5067730;28;20485;-49
2022/09/28 06:28:01;;;;;;;38.23;35.03;;;;;;;9.98;100.00;99424.16;5093826;28;20425;-52
2022/09/28 06:30:32;;;;;;;40.77;37.27;;;;;;;10.00;100.00;99422.09;5093792;28;20454;-51
2022/09/28 06:33:01;;;;;;;42.97;38.67;;;;;;;10.07;100.00;99424.66;5093742;28;20935;-49
2022/09/28 06:35:30;;;;;;;44.10;39.90;;;;;;;10.07;100.00;99428.13;5068009;28;20491;-52
2022/09/28 06:37:59;;;;;;;43.90;39.77;;;;;;;10.09;100.00;99427.91;5093433;28;20474;-50
2022/09/28 06:40:28;;;;;;;43.17;39.00;;;;;;;10.11;100.00;99436.50;5093575;28;20598;-47
2022/09/28 06:42:57;;;;;;;45.07;40.40;;;;;;;10.10;100.00;99442.84;5093431;28;20472;-46
2022/09/28 06:45:25;;;;;;;44.90;40.27;;;;;;;10.14;100.00;99436.88;5067402;28;20558;-45
2022/09/28 06:47:56;;;;;;;40.70;36.90;;;;;;;10.11;100.00;99441.81;5093481;28;20495;-52
2022/09/28 06:50:25;;;;;;;36.13;33.03;;;;;;;10.09;100.00;99452.72;5093854;28;20853;-48
2022/09/28 06:52:53;;;;;;;41.63;37.90;;;;;;;10.10;100.00;99450.84;5093527;28;20450;-50
2022/09/28 06:55:21;;;;;;;40.73;36.90;;;;;;;10.14;100.00;99447.53;5067068;28;20464;-50
2022/09/28 06:57:58;;;;;;;41.20;37.27;;;;;;;10.15;100.00;99456.34;5093543;28;20488;-50
2022/09/28 07:00:26;;;;;;;38.03;35.03;;;;;;;10.19;100.00;99454.84;5093574;28;20453;-51
2022/09/28 07:02:55;;;;;;;42.97;38.87;;;;;;;10.09;100.00;99460.72;5093300;28;20426;-46
2022/09/28 07:05:26;;;;;;;41.37;37.83;;;;;;;10.07;100.00;99460.09;5067002;28;20485;-45
2022/09/28 07:07:55;;;;;;;41.70;38.20;;;;;;;10.18;100.00;99462.06;5093305;28;20418;-48
2022/09/28 07:10:23;;;;;;;41.93;38.20;;;;;;;10.27;100.00;99457.22;5093145;28;20503;-53
2022/09/28 07:12:51;;;;;;;48.40;42.97;;;;;;;10.32;100.00;99465.34;5092829;28;20422;-49
2022/09/28 07:15:20;;;;;;;45.50;41.40;;;;;;;10.43;100.00;99462.72;5073698;28;20566;-51
2022/09/28 07:17:48;;;;;;;48.43;43.60;;;;;;;10.46;100.00;99462.25;5092567;28;20438;-52
2022/09/28 07:20:31;;;;;;;49.47;44.10;;;;;;;10.51;100.00;99465.06;5080527;28;20456;-48
2022/09/28 07:23:04;;;;;;;45.80;41.40;;;;;;;10.57;100.00;99474.03;5086514;28;20513;-44
2022/09/28 07:25:47;;;;;;;45.53;41.00;;;;;;;10.62;100.00;99466.16;5066592;28;20833;-53
2022/09/28 07:28:16;;;;;;;44.27;40.30;;;;;;;10.73;100.00;99477.88;5092816;28;20430;-52
2022/09/28 07:30:44;;;;;;;48.80;43.13;;;;;;;10.70;100.00;99476.47;5092220;28;20857;-49
2022/09/28 07:33:14;;;;;;;47.00;43.00;;;;;;;10.73;100.00;99477.88;5092823;28;20491;-52
2022/09/28 07:35:49;;;;;;;46.97;42.57;;;;;;;10.77;100.00;99479.88;5076021;28;20422;-51
2022/09/28 07:38:17;;;;;;;44.90;40.60;;;;;;;10.83;100.00;99478.97;5092580;28;20490;-51
2022/09/28 07:43:30;;;;;;;45.77;40.53;;;;;;;10.88;100.00;99489.75;5092594;28;20430;-50
2022/09/28 07:45:58;;;;;;;48.83;44.20;;;;;;;10.91;100.00;99489.28;5066056;28;20821;-51
2022/09/28 07:48:25;;;;;;;46.83;42.23;;;;;;;10.94;100.00;99486.16;5091224;28;20520;-49
2022/09/28 07:50:58;;;;;;;47.50;42.77;;;;;;;10.97;100.00;99491.03;5107704;22;20552;-45
2022/09/28 07:53:27;;;;;;;48.43;43.83;;;;;;;11.00;100.00;99505.75;5043657;28;20421;-44
2022/09/28 07:56:03;;;;;;;48.43;43.60;;;;;;;11.00;100.00;99503.91;5030805;28;20851;-45
2022/09/28 07:58:32;;;;;;;44.00;40.10;;;;;;;10.97;100.00;99500.88;5052017;28;20500;-43
2022/09/28 08:01:04;;;;;;;43.93;39.60;;;;;;;10.99;100.00;99504.94;5051945;28;20443;-44
2022/09/28 08:03:32;;;;;;;44.37;40.10;;;;;;;11.06;100.00;99512.84;5052232;28;20438;-46
2022/09/28 08:06:03;;;;;;;44.30;40.07;;;;;;;11.07;100.00;99503.81;5051653;28;21030;-46
2022/09/28 08:08:33;;;;;;;40.83;36.97;;;;;;;11.13;100.00;99516.25;5033421;28;20459;-43
2022/09/28 08:11:02;;;;;;;43.93;40.10;;;;;;;11.30;100.00;99511.03;5051824;28;20443;-44
2022/09/28 08:13:29;;;;;;;44.23;40.03;;;;;;;11.35;100.00;99516.50;5051922;28;20435;-43
2022/09/28 08:16:01;;;;;;;44.47;40.37;;;;;;;11.37;100.00;99523.25;5051681;28;20947;-44
2022/09/28 08:18:29;;;;;;;42.03;38.40;;;;;;;11.46;100.00;99513.84;5028548;28;20991;-44
2022/09/28 08:23:43;;;;;;;43.57;39.90;;;;;;;11.56;100.00;99519.41;5071396;28;20434;-44
2022/09/28 08:26:11;;;;;;;42.23;38.50;;;;;;;11.72;100.00;99517.09;5071595;28;20539;-45
2022/09/28 08:28:43;;;;;;;42.30;38.93;;;;;;;11.89;100.00;99524.16;5053918;28;21096;-45
2022/09/28 08:31:11;;;;;;;41.10;37.70;;;;;;;12.03;100.00;99519.41;5071269;28;20458;-45
2022/09/28 08:33:40;;;;;;;46.50;42.10;;;;;;;12.13;100.00;99517.72;5071562;28;20442;-45
2022/09/28 08:36:09;;;;;;;45.40;41.17;;;;;;;12.14;100.00;99516.69;5071749;28;20435;-43
2022/09/28 08:38:37;;;;;;;42.20;38.53;;;;;;;12.15;100.00;99522.84;5045685;28;20466;-43
2022/09/28 08:41:16;;;;;;;43.67;40.10;;;;;;;12.16;100.00;99519.13;5071265;28;20864;-44
2022/09/28 08:44:08;;;;;;;40.30;37.07;;;;;;;12.23;100.00;99527.00;5071435;28;20934;-43
2022/09/28 08:46:38;;;;;;;44.13;40.20;;;;;;;12.25;100.00;99525.72;5071530;28;20478;-44
2022/09/28 08:49:10;;;;;;;42.30;39.00;;;;;;;12.37;100.00;99528.34;5045511;28;20975;-43
2022/09/28 08:51:58;;;;;;;36.50;33.70;;;;;;;12.53;100.00;99533.78;5070872;28;20835;-41
2022/09/28 08:54:36;;;;;;;37.33;34.53;;;;;;;12.54;100.00;99538.09;5071599;28;20509;-43
2022/09/28 08:57:11;;;;;;;36.20;33.50;;;;;;;12.58;100.00;99536.53;5071712;28;20479;-43
2022/09/28 08:59:50;;;;;;;41.23;37.23;;;;;;;12.57;100.00;99531.44;5045917;28;20462;-42
2022/09/28 09:02:22;;;;;;;36.90;34.00;;;;;;;12.70;100.00;99537.31;5075046;28;20442;-44
2022/09/28 09:04:51;;;;;;;37.77;34.77;;;;;;;12.70;100.00;99536.50;5075625;28;20517;-43
2022/09/28 09:07:39;;;;;;;39.17;36.10;;;;;;;12.84;100.00;99531.69;5075141;28;20469;-44
2022/09/28 09:10:18;;;;;;;38.47;35.67;;;;;;;12.97;100.00;99536.72;5049350;28;20454;-46
2022/09/28 09:12:58;;;;;;;36.30;33.50;;;;;;;13.02;100.00;99526.91;5075113;28;20429;-45
2022/09/28 09:15:40;;;;;;;36.53;33.90;;;;;;;13.12;100.00;99528.97;5075533;28;20430;-46
2022/09/28 09:18:21;;;;;;;34.53;32.10;;;;;;;13.19;100.00;99532.31;5075222;28;20422;-45
2022/09/28 09:20:55;;;;;;;37.33;34.60;;;;;;;13.20;100.00;99533.94;5039679;28;20506;-42
2022/09/28 09:23:30;;;;;;;37.73;34.63;;;;;;;13.22;100.00;99540.69;5071719;28;20417;-43
2022/09/28 09:26:04;;;;;;;35.13;32.63;;;;;;;13.34;100.00;99537.09;5074865;28;20477;-45
2022/09/28 09:28:52;;;;;;;36.50;33.53;;;;;;;13.28;100.00;99539.72;5075174;28;20426;-47
2022/09/28 09:31:37;;;;;;;35.30;32.57;;;;;;;13.29;100.00;99544.00;5048682;28;21001;-44
2022/09/28 09:34:21;;;;;;;34.73;32.23;;;;;;;13.42;100.00;99548.22;5074973;28;20427;-46
2022/09/28 09:37:12;;;;;;;35.83;33.03;;;;;;;13.37;100.00;99552.69;5074749;28;20475;-44
2022/09/28 09:39:54;;;;;;;33.73;31.33;;;;;;;13.46;100.00;99554.72;5056342;28;20442;-43
2022/09/28 09:42:39;;;;;;;36.93;33.87;;;;;;;13.51;100.00;99544.06;5073712;28;20858;-46
2022/09/28 09:45:26;;;;;;;35.70;32.97;;;;;;;13.62;100.00;99550.41;5074567;28;20468;-43
2022/09/28 09:47:59;;;;;;;33.90;31.60;;;;;;;13.69;100.00;99553.72;5074698;28;20808;-42
2022/09/28 09:50:32;;;;;;;32.80;30.40;;;;;;;13.65;98.78;99547.25;5048664;28;20439;-47
2022/09/28 09:53:04;;;;;;;35.73;33.07;;;;;;;13.77;99.94;99550.63;5074044;28;20999;-43
2022/09/28 09:55:39;;;;;;;36.10;33.50;;;;;;;13.96;100.00;99556.50;5074362;28;20495;-45
2022/09/28 09:58:13;;;;;;;35.20;32.63;;;;;;;14.02;100.00;99550.97;5074843;28;20457;-45
2022/09/28 10:00:44;;;;;;;34.13;31.67;;;;;;;14.02;99.78;99550.97;5048163;28;20474;-46
2022/09/28 10:03:21;;;;;;;34.97;32.57;;;;;;;14.02;98.04;99556.34;5073994;28;20931;-44
2022/09/28 10:05:55;;;;;;;34.83;32.33;;;;;;;13.95;98.33;99557.59;5074149;28;20422;-44
2022/09/28 10:08:26;;;;;;;35.23;32.73;;;;;;;13.85;96.45;99552.91;5074176;28;20491;-42
2022/09/28 10:11:02;;;;;;;31.53;29.27;;;;;;;13.64;94.84;99551.78;5055540;28;20464;-43
2022/09/28 10:13:31;;;;;;;31.80;29.17;;;;;;;13.44;95.79;99558.69;5073889;28;20456;-45
2022/09/28 10:16:00;;;;;;;33.37;30.80;;;;;;;13.37;97.85;99564.22;5074035;28;20961;-44
2022/09/28 10:18:28;;;;;;;32.73;30.33;;;;;;;13.31;98.56;99562.50;5073941;28;20931;-45
2022/09/28 10:20:55;;;;;;;32.67;30.27;;;;;;;13.25;100.00;99558.94;5063300;28;20444;-43
2022/09/28 10:23:27;;;;;;;32.57;30.10;;;;;;;13.15;100.00;99561.44;5044840;28;20504;-44
2022/09/28 10:25:59;;;;;;;34.10;31.30;;;;;;;13.01;100.00;99562.75;5073824;28;20430;-44
2022/09/28 10:28:35;;;;;;;31.63;29.43;;;;;;;12.89;99.11;99569.22;5073886;28;20438;-41
2022/09/28 10:31:38;;;;;;;33.17;30.63;;;;;;;12.85;100.00;99566.19;5073595;28;20797;-42
2022/09/28 10:34:07;;;;;;;31.33;29.10;;;;;;;12.89;100.00;99577.25;5053763;28;20462;-47
2022/09/28 10:36:48;;;;;;;32.00;29.80;;;;;;;12.90;100.00;99568.19;5073450;28;20438;-41
2022/09/28 10:39:32;;;;;;;33.27;30.47;;;;;;;12.97;100.00;99569.63;5073765;28;20411;-44
2022/09/28 10:42:03;;;;;;;32.73;30.10;;;;;;;12.97;100.00;99576.84;5073108;28;20504;-43
2022/09/28 10:44:34;;;;;;;34.00;31.50;;;;;;;13.12;100.00;99571.81;5044861;28;21269;-44
2022/09/28 10:47:06;;;;;;;35.83;33.20;;;;;;;13.22;100.00;99580.84;5073430;28;20466;-44
2022/09/28 10:49:40;;;;;;;35.10;32.37;;;;;;;13.35;100.00;99586.94;5073615;28;20437;-45
2022/09/28 10:52:31;;;;;;;35.60;32.80;;;;;;;13.48;100.00;99579.38;5072883;28;20462;-46
2022/09/28 10:55:00;;;;;;;32.57;30.33;;;;;;;13.48;98.26;99576.69;5029651;28;20442;-41
2022/09/28 10:57:32;;;;;;;34.13;31.53;;;;;;;13.60;98.46;99573.94;5073335;28;20468;-45
2022/09/28 11:00:00;;;;;;;32.40;30.00;;;;;;;13.76;98.78;99579.31;5073353;28;20431;-43
2022/09/28 11:02:32;;;;;;;33.37;30.67;;;;;;;13.81;95.79;99581.22;5072854;28;20455;-44
2022/09/28 11:05:06;;;;;;;32.53;29.87;;;;;;;13.84;95.22;99581.56;5047172;28;20460;-46
2022/09/28 11:07:45;;;;;;;31.13;28.83;;;;;;;13.88;95.37;99578.38;5073029;28;21013;-43
2022/09/28 11:10:20;;;;;;;31.17;28.70;;;;;;;13.94;96.28;99572.03;5072940;28;20464;-43
2022/09/28 11:12:49;;;;;;;29.77;27.80;;;;;;;13.97;93.64;99579.59;5073087;28;20495;-42
2022/09/28 11:15:19;;;;;;;30.03;27.93;;;;;;;14.02;93.39;99585.00;5046817;28;20454;-45
2022/09/28 11:17:48;;;;;;;28.93;27.00;;;;;;;14.10;93.03;99581.91;5072687;28;20422;-45
2022/09/28 11:20:33;;;;;;;33.13;30.63;;;;;;;14.20;93.81;99590.09;5067679;28;20465;-43
2022/09/28 11:23:17;;;;;;;29.57;27.50;;;;;;;14.33;93.96;99587.91;5060044;28;20422;-44
2022/09/28 11:25:57;;;;;;;29.60;27.60;;;;;;;14.55;94.21;99584.41;5061879;28;20523;-43
2022/09/28 11:28:32;;;;;;;30.97;28.40;;;;;;;14.69;91.67;99583.78;5072794;28;20948;-47
2022/09/28 11:31:01;;;;;;;31.43;29.10;;;;;;;14.74;87.03;99585.69;5072487;28;20457;-44
2022/09/28 11:33:36;;;;;;;31.80;29.40;;;;;;;14.98;87.06;99586.22;5072565;28;20438;-44
2022/09/28 11:36:15;;;;;;;32.00;29.60;;;;;;;15.12;85.18;99582.88;5046645;28;20814;-44
2022/09/28 11:38:56;;;;;;;31.90;29.57;;;;;;;15.68;87.23;99594.16;5072322;28;20914;-45
2022/09/28 11:41:36;;;;;;;29.43;27.63;;;;;;;15.81;82.00;99597.19;5072276;28;20458;-43
2022/09/28 11:44:26;;;;;;;32.10;29.60;;;;;;;15.74;80.53;99596.59;5064715;28;20475;-44
2022/09/28 11:47:10;;;;;;;27.33;25.50;;;;;;;15.65;80.43;99605.41;5071977;28;20562;-45
2022/09/28 11:49:43;;;;;;;28.77;26.67;;;;;;;15.79;82.08;99593.16;5072292;28;20433;-43
2022/09/28 11:52:22;;;;;;;29.50;27.10;;;;;;;15.90;80.41;99597.53;5071745;28;20516;-41
2022/09/28 11:54:54;;;;;;;27.83;25.63;;;;;;;16.03;81.10;99589.81;5046189;28;20458;-42
2022/09/28 11:57:27;;;;;;;26.57;24.77;;;;;;;16.24;81.57;99588.06;5071895;28;20426;-43
2022/09/28 11:59:58;;;;;;;25.77;23.83;;;;;;;16.17;77.68;99594.72;5072213;28;20433;-41
2022/09/28 12:02:31;;;;;;;24.03;22.43;;;;;;;16.30;78.20;99597.78;5071652;28;20979;-43
2022/09/28 12:05:11;;;;;;;23.60;22.00;;;;;;;16.24;76.21;99588.06;5046172;28;20459;-44
2022/09/28 12:07:48;;;;;;;21.50;20.10;;;;;;;16.31;77.37;99596.69;5071823;28;20656;-43
2022/09/28 12:10:23;;;;;;;20.73;19.23;;;;;;;16.49;78.42;99595.44;5072026;28;20435;-44
2022/09/28 12:12:58;;;;;;;19.90;18.50;;;;;;;16.62;78.71;99588.78;5071790;28;20506;-43
2022/09/28 12:15:30;;;;;;;18.57;17.30;;;;;;;16.79;76.38;99582.09;5046086;28;20499;-43
2022/09/28 12:18:23;;;;;;;17.57;16.33;;;;;;;17.09;78.16;99587.56;5071843;28;20792;-45
2022/09/28 12:21:09;;;;;;;19.93;17.93;;;;;;;17.24;75.65;99588.66;5061898;28;20452;-43
2022/09/28 12:23:41;;;;;;;18.50;17.00;;;;;;;17.44;74.59;99591.41;5070485;28;20434;-44
2022/09/28 12:26:21;;;;;;;18.50;17.03;;;;;;;17.41;72.51;99578.47;5045807;28;20527;-44
2022/09/28 12:28:54;;;;;;;18.07;16.77;;;;;;;17.42;72.08;99578.16;5071806;28;20606;-43
2022/09/28 12:31:30;;;;;;;16.67;15.43;;;;;;;17.41;71.85;99579.25;5071677;28;20456;-47
2022/09/28 12:33:58;;;;;;;19.97;18.10;;;;;;;17.41;72.39;99578.47;5071509;28;20457;-42
2022/09/28 12:36:41;;;;;;;18.07;16.67;;;;;;;17.14;72.07;99576.00;5050898;28;20516;-42
2022/09/28 12:39:19;;;;;;;16.87;15.63;;;;;;;17.06;72.36;99577.34;5071306;28;20815;-42
2022/09/28 12:42:24;;;;;;;16.20;14.70;;;;;;;17.06;73.23;99576.50;5071472;28;20876;-44
2022/09/28 12:45:09;;;;;;;18.00;16.67;;;;;;;17.01;73.76;99585.41;5071582;28;20426;-44
2022/09/28 12:48:07;;;;;;;23.23;21.10;;;;;;;16.96;73.75;99581.91;5045523;28;20528;-44
2022/09/28 12:50:44;;;;;;;18.77;17.20;;;;;;;16.89;72.40;99578.63;5071262;28;20471;-43
2022/09/28 12:53:47;;;;;;;18.37;16.93;;;;;;;16.74;71.71;99581.28;5071300;28;20437;-44
2022/09/28 12:56:24;;;;;;;16.33;15.13;;;;;;;16.75;72.55;99578.34;5071301;28;20426;-45
2022/09/28 12:59:04;;;;;;;15.93;14.73;;;;;;;16.63;73.35;99588.53;5045446;28;20519;-44
2022/09/28 13:01:50;;;;;;;18.20;16.43;;;;;;;16.70;74.08;99580.19;5071027;28;20473;-42
2022/09/28 13:04:47;;;;;;;17.70;16.20;;;;;;;16.59;73.37;99582.06;5071539;28;20491;-43
2022/09/28 13:07:23;;;;;;;19.13;17.53;;;;;;;16.57;73.76;99576.94;5045550;28;20838;-43
2022/09/28 13:10:13;;;;;;;18.50;17.10;;;;;;;16.45;72.33;99583.59;5071087;28;20430;-43
2022/09/28 13:12:58;;;;;;;16.73;15.47;;;;;;;16.58;76.30;99583.94;5071131;28;20457;-41
2022/09/28 13:15:38;;;;;;;18.67;17.27;;;;;;;16.52;74.59;99584.13;5071401;28;20476;-44
2022/09/28 13:18:14;;;;;;;16.37;15.07;;;;;;;16.49;74.38;99582.78;5050793;28;20462;-43
2022/09/28 13:20:56;;;;;;;17.50;16.13;;;;;;;16.50;74.75;99583.59;5062503;28;20454;-42
2022/09/28 13:23:27;;;;;;;16.90;15.40;;;;;;;16.34;72.38;99592.66;5068109;28;20438;-43
2022/09/28 13:26:02;;;;;;;17.73;16.33;;;;;;;16.38;75.61;99596.47;5071058;28;20516;-42
2022/09/28 13:28:31;;;;;;;18.10;16.47;;;;;;;16.42;76.06;99606.44;5053652;28;20527;-44